sensor_id;sensor_type;location;lat;lon;timestamp;P1;durP1;ratioP1;P2;durP2;ratioP2
29384;SDS011;16367;48.736;9.218;2022-07-19T00:02:05;6.93;;;6.30;;
29384;SDS011;16367;48.736;9.218;2022-07-19T00:04:08;7.33;;;6.63;;
29384;SDS011;16367;48.736;9.218;2022-07-19T00:06:11;7.13;;;6.47;;
29384;SDS011;16367;48.736;9.218;2022-07-19T00:08:14;7.10;;;6.47;;
29384;SDS011;16367;48.736;9.218;2022-07-19T00:10:17;8.00;;;7.00;;
29384;SDS011;16367;48.736;9.218;2022-07-19T00:12:21;9.30;;;6.70;;
29384;SDS011;16367;48.736;9.218;2022-07-19T00:14:24;6.87;;;6.27;;
29384;SDS011;16367;48.736;9.218;2022-07-19T00:16:27;8.27;;;6.13;;
29384;SDS011;16367;48.736;9.218;2022-07-19T00:18:31;6.90;;;6.20;;
29384;SDS011;16367;48.736;9.218;2022-07-19T00:20:34;6.93;;;6.33;;
29384;SDS011;16367;48.736;9.218;2022-07-19T00:22:37;7.97;;;6.67;;
29384;SDS011;16367;48.736;9.218;2022-07-19T00:24:40;6.80;;;6.20;;
29384;SDS011;16367;48.736;9.218;2022-07-19T00:26:42;6.80;;;5.73;;
29384;SDS011;16367;48.736;9.218;2022-07-19T00:28:45;6.93;;;6.33;;
29384;SDS011;16367;48.736;9.218;2022-07-19T00:30:48;7.07;;;6.50;;
29384;SDS011;16367;48.736;9.218;2022-07-19T00:32:51;7.07;;;6.47;;
29384;SDS011;16367;48.736;9.218;2022-07-19T00:34:55;7.10;;;6.40;;
29384;SDS011;16367;48.736;9.218;2022-07-19T00:36:58;7.00;;;6.40;;
29384;SDS011;16367;48.736;9.218;2022-07-19T00:39:01;7.10;;;6.20;;
29384;SDS011;16367;48.736;9.218;2022-07-19T00:41:03;6.67;;;6.07;;
29384;SDS011;16367;48.736;9.218;2022-07-19T00:43:06;7.30;;;6.50;;
29384;SDS011;16367;48.736;9.218;2022-07-19T00:45:09;7.00;;;6.30;;
29384;SDS011;16367;48.736;9.218;2022-07-19T00:47:12;7.33;;;6.63;;
29384;SDS011;16367;48.736;9.218;2022-07-19T00:49:15;7.53;;;6.30;;
29384;SDS011;16367;48.736;9.218;2022-07-19T00:51:19;7.33;;;6.47;;
29384;SDS011;16367;48.736;9.218;2022-07-19T00:53:22;7.13;;;6.43;;
29384;SDS011;16367;48.736;9.218;2022-07-19T00:55:27;7.03;;;6.43;;
29384;SDS011;16367;48.736;9.218;2022-07-19T00:57:31;6.07;;;5.47;;
29384;SDS011;16367;48.736;9.218;2022-07-19T00:59:34;11.33;;;6.40;;
29384;SDS011;16367;48.736;9.218;2022-07-19T01:01:37;6.40;;;5.90;;
29384;SDS011;16367;48.736;9.218;2022-07-19T01:03:40;7.20;;;6.50;;
29384;SDS011;16367;48.736;9.218;2022-07-19T01:05:44;7.27;;;5.63;;
29384;SDS011;16367;48.736;9.218;2022-07-19T01:07:49;7.20;;;5.10;;
29384;SDS011;16367;48.736;9.218;2022-07-19T01:09:52;7.40;;;6.10;;
29384;SDS011;16367;48.736;9.218;2022-07-19T01:11:55;6.50;;;5.90;;
29384;SDS011;16367;48.736;9.218;2022-07-19T01:13:59;9.53;;;6.00;;
29384;SDS011;16367;48.736;9.218;2022-07-19T01:16:02;6.80;;;6.30;;
29384;SDS011;16367;48.736;9.218;2022-07-19T01:18:04;6.60;;;6.00;;
29384;SDS011;16367;48.736;9.218;2022-07-19T01:20:07;6.77;;;6.20;;
29384;SDS011;16367;48.736;9.218;2022-07-19T01:22:12;5.83;;;5.33;;
29384;SDS011;16367;48.736;9.218;2022-07-19T01:24:15;6.90;;;6.20;;
29384;SDS011;16367;48.736;9.218;2022-07-19T01:26:18;6.27;;;5.70;;
29384;SDS011;16367;48.736;9.218;2022-07-19T01:28:21;8.70;;;6.10;;
29384;SDS011;16367;48.736;9.218;2022-07-19T01:30:24;6.50;;;5.90;;
29384;SDS011;16367;48.736;9.218;2022-07-19T01:32:27;6.50;;;5.90;;
29384;SDS011;16367;48.736;9.218;2022-07-19T01:34:30;6.17;;;5.57;;
29384;SDS011;16367;48.736;9.218;2022-07-19T01:36:34;6.00;;;5.50;;
29384;SDS011;16367;48.736;9.218;2022-07-19T01:38:38;6.80;;;6.10;;
29384;SDS011;16367;48.736;9.218;2022-07-19T01:40:41;7.63;;;6.30;;
29384;SDS011;16367;48.736;9.218;2022-07-19T01:42:44;8.90;;;6.33;;
29384;SDS011;16367;48.736;9.218;2022-07-19T01:44:48;6.80;;;6.20;;
29384;SDS011;16367;48.736;9.218;2022-07-19T01:46:50;6.53;;;6.03;;
29384;SDS011;16367;48.736;9.218;2022-07-19T01:48:53;6.57;;;6.03;;
29384;SDS011;16367;48.736;9.218;2022-07-19T01:50:56;6.17;;;5.60;;
29384;SDS011;16367;48.736;9.218;2022-07-19T01:52:59;6.90;;;6.20;;
29384;SDS011;16367;48.736;9.218;2022-07-19T01:55:04;6.63;;;6.03;;
29384;SDS011;16367;48.736;9.218;2022-07-19T01:57:08;8.50;;;6.00;;
29384;SDS011;16367;48.736;9.218;2022-07-19T01:59:11;6.60;;;6.10;;
29384;SDS011;16367;48.736;9.218;2022-07-19T02:01:14;7.17;;;6.00;;
29384;SDS011;16367;48.736;9.218;2022-07-19T02:03:16;6.60;;;5.90;;
29384;SDS011;16367;48.736;9.218;2022-07-19T02:05:19;7.10;;;6.50;;
29384;SDS011;16367;48.736;9.218;2022-07-19T02:07:23;7.47;;;5.87;;
29384;SDS011;16367;48.736;9.218;2022-07-19T02:09:26;6.00;;;5.50;;
29384;SDS011;16367;48.736;9.218;2022-07-19T02:11:31;7.00;;;6.13;;
29384;SDS011;16367;48.736;9.218;2022-07-19T02:13:39;7.10;;;6.23;;
29384;SDS011;16367;48.736;9.218;2022-07-19T02:15:42;7.53;;;6.07;;
29384;SDS011;16367;48.736;9.218;2022-07-19T02:17:45;7.00;;;6.40;;
29384;SDS011;16367;48.736;9.218;2022-07-19T02:19:47;6.30;;;5.70;;
29384;SDS011;16367;48.736;9.218;2022-07-19T02:21:50;6.47;;;5.90;;
29384;SDS011;16367;48.736;9.218;2022-07-19T02:23:53;6.30;;;5.27;;
29384;SDS011;16367;48.736;9.218;2022-07-19T02:25:56;7.47;;;6.47;;
29384;SDS011;16367;48.736;9.218;2022-07-19T02:28:00;6.50;;;5.90;;
29384;SDS011;16367;48.736;9.218;2022-07-19T02:30:03;6.30;;;5.80;;
29384;SDS011;16367;48.736;9.218;2022-07-19T02:32:07;6.70;;;6.10;;
29384;SDS011;16367;48.736;9.218;2022-07-19T02:34:10;6.73;;;6.13;;
29384;SDS011;16367;48.736;9.218;2022-07-19T02:36:12;6.70;;;6.10;;
29384;SDS011;16367;48.736;9.218;2022-07-19T02:38:15;6.47;;;5.67;;
29384;SDS011;16367;48.736;9.218;2022-07-19T02:40:18;6.53;;;5.87;;
29384;SDS011;16367;48.736;9.218;2022-07-19T02:42:21;5.73;;;5.23;;
29384;SDS011;16367;48.736;9.218;2022-07-19T02:44:25;5.70;;;5.20;;
29384;SDS011;16367;48.736;9.218;2022-07-19T02:46:28;6.67;;;5.97;;
29384;SDS011;16367;48.736;9.218;2022-07-19T02:48:30;6.37;;;5.80;;
29384;SDS011;16367;48.736;9.218;2022-07-19T02:50:33;6.73;;;6.13;;
29384;SDS011;16367;48.736;9.218;2022-07-19T02:52:36;6.50;;;5.87;;
29384;SDS011;16367;48.736;9.218;2022-07-19T02:54:39;6.10;;;5.60;;
29384;SDS011;16367;48.736;9.218;2022-07-19T02:56:41;6.50;;;5.90;;
29384;SDS011;16367;48.736;9.218;2022-07-19T02:58:44;6.50;;;6.00;;
29384;SDS011;16367;48.736;9.218;2022-07-19T03:00:48;6.87;;;6.27;;
29384;SDS011;16367;48.736;9.218;2022-07-19T03:02:51;7.90;;;6.63;;
29384;SDS011;16367;48.736;9.218;2022-07-19T03:04:54;6.60;;;6.10;;
29384;SDS011;16367;48.736;9.218;2022-07-19T03:06:56;6.43;;;5.93;;
29384;SDS011;16367;48.736;9.218;2022-07-19T03:08:59;6.13;;;5.63;;
29384;SDS011;16367;48.736;9.218;2022-07-19T03:11:02;6.83;;;6.23;;
29384;SDS011;16367;48.736;9.218;2022-07-19T03:13:05;6.53;;;5.93;;
29384;SDS011;16367;48.736;9.218;2022-07-19T03:15:08;7.60;;;6.23;;
29384;SDS011;16367;48.736;9.218;2022-07-19T03:17:12;6.50;;;6.00;;
29384;SDS011;16367;48.736;9.218;2022-07-19T03:19:15;6.53;;;5.93;;
29384;SDS011;16367;48.736;9.218;2022-07-19T03:21:18;6.70;;;6.00;;
29384;SDS011;16367;48.736;9.218;2022-07-19T03:23:20;6.53;;;5.93;;
29384;SDS011;16367;48.736;9.218;2022-07-19T03:25:23;6.93;;;6.33;;
29384;SDS011;16367;48.736;9.218;2022-07-19T03:27:26;8.37;;;6.13;;
29384;SDS011;16367;48.736;9.218;2022-07-19T03:29:29;6.50;;;5.90;;
29384;SDS011;16367;48.736;9.218;2022-07-19T03:31:31;7.90;;;7.10;;
29384;SDS011;16367;48.736;9.218;2022-07-19T03:33:36;7.83;;;6.47;;
29384;SDS011;16367;48.736;9.218;2022-07-19T03:35:38;6.57;;;6.07;;
29384;SDS011;16367;48.736;9.218;2022-07-19T03:37:42;6.80;;;6.07;;
29384;SDS011;16367;48.736;9.218;2022-07-19T03:39:44;6.97;;;6.27;;
29384;SDS011;16367;48.736;9.218;2022-07-19T03:41:47;6.50;;;6.00;;
29384;SDS011;16367;48.736;9.218;2022-07-19T03:43:50;6.37;;;5.73;;
29384;SDS011;16367;48.736;9.218;2022-07-19T03:45:52;7.10;;;6.43;;
29384;SDS011;16367;48.736;9.218;2022-07-19T03:47:55;7.13;;;6.43;;
29384;SDS011;16367;48.736;9.218;2022-07-19T03:50:00;7.17;;;6.57;;
29384;SDS011;16367;48.736;9.218;2022-07-19T03:52:03;7.03;;;6.43;;
29384;SDS011;16367;48.736;9.218;2022-07-19T03:54:06;7.07;;;6.47;;
29384;SDS011;16367;48.736;9.218;2022-07-19T03:56:08;6.73;;;6.20;;
29384;SDS011;16367;48.736;9.218;2022-07-19T03:58:11;6.60;;;6.00;;
29384;SDS011;16367;48.736;9.218;2022-07-19T04:00:14;10.10;;;6.20;;
29384;SDS011;16367;48.736;9.218;2022-07-19T04:02:17;8.40;;;5.90;;
29384;SDS011;16367;48.736;9.218;2022-07-19T04:04:20;9.17;;;6.37;;
29384;SDS011;16367;48.736;9.218;2022-07-19T04:06:24;6.57;;;5.80;;
29384;SDS011;16367;48.736;9.218;2022-07-19T04:08:26;7.40;;;6.40;;
29384;SDS011;16367;48.736;9.218;2022-07-19T04:10:37;7.10;;;6.40;;
29384;SDS011;16367;48.736;9.218;2022-07-19T04:12:39;6.67;;;6.07;;
29384;SDS011;16367;48.736;9.218;2022-07-19T04:14:42;6.73;;;6.03;;
29384;SDS011;16367;48.736;9.218;2022-07-19T04:16:45;6.77;;;6.10;;
29384;SDS011;16367;48.736;9.218;2022-07-19T04:18:48;6.50;;;5.90;;
29384;SDS011;16367;48.736;9.218;2022-07-19T04:20:51;6.33;;;5.83;;
29384;SDS011;16367;48.736;9.218;2022-07-19T04:22:55;9.53;;;5.70;;
29384;SDS011;16367;48.736;9.218;2022-07-19T04:24:58;6.20;;;5.70;;
29384;SDS011;16367;48.736;9.218;2022-07-19T04:27:02;6.93;;;6.30;;
29384;SDS011;16367;48.736;9.218;2022-07-19T04:29:04;6.43;;;5.83;;
29384;SDS011;16367;48.736;9.218;2022-07-19T04:31:07;6.63;;;6.03;;
29384;SDS011;16367;48.736;9.218;2022-07-19T04:33:12;7.37;;;5.87;;
29384;SDS011;16367;48.736;9.218;2022-07-19T04:35:15;6.33;;;5.80;;
29384;SDS011;16367;48.736;9.218;2022-07-19T04:37:18;8.70;;;6.03;;
29384;SDS011;16367;48.736;9.218;2022-07-19T04:39:22;6.47;;;5.70;;
29384;SDS011;16367;48.736;9.218;2022-07-19T04:41:25;6.13;;;5.40;;
29384;SDS011;16367;48.736;9.218;2022-07-19T04:43:27;6.23;;;5.73;;
29384;SDS011;16367;48.736;9.218;2022-07-19T04:45:30;6.60;;;5.90;;
29384;SDS011;16367;48.736;9.218;2022-07-19T04:47:33;5.70;;;5.30;;
29384;SDS011;16367;48.736;9.218;2022-07-19T04:49:35;5.67;;;5.17;;
29384;SDS011;16367;48.736;9.218;2022-07-19T04:51:38;5.87;;;5.27;;
29384;SDS011;16367;48.736;9.218;2022-07-19T04:53:41;6.20;;;5.60;;
29384;SDS011;16367;48.736;9.218;2022-07-19T04:55:45;6.07;;;5.57;;
29384;SDS011;16367;48.736;9.218;2022-07-19T04:57:48;6.33;;;5.50;;
29384;SDS011;16367;48.736;9.218;2022-07-19T04:59:50;6.10;;;5.60;;
29384;SDS011;16367;48.736;9.218;2022-07-19T05:01:53;6.07;;;5.47;;
29384;SDS011;16367;48.736;9.218;2022-07-19T05:03:56;6.10;;;5.50;;
29384;SDS011;16367;48.736;9.218;2022-07-19T05:05:59;6.87;;;5.97;;
29384;SDS011;16367;48.736;9.218;2022-07-19T05:08:02;5.90;;;5.50;;
29384;SDS011;16367;48.736;9.218;2022-07-19T05:10:05;5.70;;;5.00;;
29384;SDS011;16367;48.736;9.218;2022-07-19T05:12:10;8.40;;;5.20;;
29384;SDS011;16367;48.736;9.218;2022-07-19T05:14:13;6.13;;;5.53;;
29384;SDS011;16367;48.736;9.218;2022-07-19T05:16:16;5.43;;;5.00;;
29384;SDS011;16367;48.736;9.218;2022-07-19T05:18:18;5.90;;;5.03;;
29384;SDS011;16367;48.736;9.218;2022-07-19T05:20:21;5.87;;;5.37;;
29384;SDS011;16367;48.736;9.218;2022-07-19T05:22:24;7.23;;;5.03;;
29384;SDS011;16367;48.736;9.218;2022-07-19T05:24:27;8.83;;;5.50;;
29384;SDS011;16367;48.736;9.218;2022-07-19T05:26:29;6.23;;;5.63;;
29384;SDS011;16367;48.736;9.218;2022-07-19T05:28:34;6.13;;;5.43;;
29384;SDS011;16367;48.736;9.218;2022-07-19T05:30:37;7.77;;;4.70;;
29384;SDS011;16367;48.736;9.218;2022-07-19T05:32:40;5.27;;;4.70;;
29384;SDS011;16367;48.736;9.218;2022-07-19T05:34:43;5.27;;;4.80;;
29384;SDS011;16367;48.736;9.218;2022-07-19T05:36:46;5.30;;;4.73;;
29384;SDS011;16367;48.736;9.218;2022-07-19T05:38:48;5.00;;;4.53;;
29384;SDS011;16367;48.736;9.218;2022-07-19T05:40:51;5.37;;;4.90;;
29384;SDS011;16367;48.736;9.218;2022-07-19T05:42:54;6.47;;;4.93;;
29384;SDS011;16367;48.736;9.218;2022-07-19T05:44:58;6.10;;;4.60;;
29384;SDS011;16367;48.736;9.218;2022-07-19T05:47:00;6.80;;;4.63;;
29384;SDS011;16367;48.736;9.218;2022-07-19T05:49:03;7.10;;;4.77;;
29384;SDS011;16367;48.736;9.218;2022-07-19T05:51:06;5.37;;;4.93;;
29384;SDS011;16367;48.736;9.218;2022-07-19T05:53:09;6.97;;;5.03;;
29384;SDS011;16367;48.736;9.218;2022-07-19T05:55:12;5.33;;;4.83;;
29384;SDS011;16367;48.736;9.218;2022-07-19T05:57:14;4.50;;;4.20;;
29384;SDS011;16367;48.736;9.218;2022-07-19T05:59:17;4.90;;;4.40;;
29384;SDS011;16367;48.736;9.218;2022-07-19T06:01:24;4.60;;;4.30;;
29384;SDS011;16367;48.736;9.218;2022-07-19T06:03:27;5.93;;;3.87;;
29384;SDS011;16367;48.736;9.218;2022-07-19T06:05:30;4.80;;;4.40;;
29384;SDS011;16367;48.736;9.218;2022-07-19T06:07:32;4.43;;;4.03;;
29384;SDS011;16367;48.736;9.218;2022-07-19T06:09:35;3.93;;;3.63;;
29384;SDS011;16367;48.736;9.218;2022-07-19T06:11:38;5.63;;;4.40;;
29384;SDS011;16367;48.736;9.218;2022-07-19T06:13:41;4.60;;;4.20;;
29384;SDS011;16367;48.736;9.218;2022-07-19T06:15:45;5.07;;;4.67;;
29384;SDS011;16367;48.736;9.218;2022-07-19T06:17:49;5.17;;;4.53;;
29384;SDS011;16367;48.736;9.218;2022-07-19T06:19:53;6.77;;;4.80;;
29384;SDS011;16367;48.736;9.218;2022-07-19T06:21:56;5.33;;;4.83;;
29384;SDS011;16367;48.736;9.218;2022-07-19T06:23:59;4.60;;;4.20;;
29384;SDS011;16367;48.736;9.218;2022-07-19T06:26:02;4.80;;;4.23;;
29384;SDS011;16367;48.736;9.218;2022-07-19T06:28:05;5.13;;;4.73;;
29384;SDS011;16367;48.736;9.218;2022-07-19T06:30:08;8.50;;;4.30;;
29384;SDS011;16367;48.736;9.218;2022-07-19T06:32:11;4.23;;;3.93;;
29384;SDS011;16367;48.736;9.218;2022-07-19T06:34:15;5.40;;;3.93;;
29384;SDS011;16367;48.736;9.218;2022-07-19T06:36:18;5.43;;;4.43;;
29384;SDS011;16367;48.736;9.218;2022-07-19T06:38:22;4.40;;;4.00;;
29384;SDS011;16367;48.736;9.218;2022-07-19T06:40:24;7.47;;;4.47;;
29384;SDS011;16367;48.736;9.218;2022-07-19T06:42:27;4.30;;;3.90;;
29384;SDS011;16367;48.736;9.218;2022-07-19T06:44:30;5.47;;;4.03;;
29384;SDS011;16367;48.736;9.218;2022-07-19T06:46:33;7.57;;;4.40;;
29384;SDS011;16367;48.736;9.218;2022-07-19T06:48:36;6.23;;;4.37;;
29384;SDS011;16367;48.736;9.218;2022-07-19T06:50:40;4.70;;;4.30;;
29384;SDS011;16367;48.736;9.218;2022-07-19T06:52:43;4.27;;;3.97;;
29384;SDS011;16367;48.736;9.218;2022-07-19T06:54:46;5.80;;;4.03;;
29384;SDS011;16367;48.736;9.218;2022-07-19T06:56:49;4.20;;;3.80;;
29384;SDS011;16367;48.736;9.218;2022-07-19T06:58:51;7.07;;;4.33;;
29384;SDS011;16367;48.736;9.218;2022-07-19T07:00:54;6.33;;;4.20;;
29384;SDS011;16367;48.736;9.218;2022-07-19T07:02:57;4.87;;;4.27;;
29384;SDS011;16367;48.736;9.218;2022-07-19T07:05:00;6.00;;;3.87;;
29384;SDS011;16367;48.736;9.218;2022-07-19T07:07:04;4.37;;;4.00;;
29384;SDS011;16367;48.736;9.218;2022-07-19T07:09:07;4.30;;;4.00;;
29384;SDS011;16367;48.736;9.218;2022-07-19T07:11:10;5.70;;;4.00;;
29384;SDS011;16367;48.736;9.218;2022-07-19T07:13:13;4.70;;;4.30;;
29384;SDS011;16367;48.736;9.218;2022-07-19T07:15:17;4.13;;;3.70;;
29384;SDS011;16367;48.736;9.218;2022-07-19T07:17:19;4.90;;;3.83;;
29384;SDS011;16367;48.736;9.218;2022-07-19T07:19:22;4.10;;;3.70;;
29384;SDS011;16367;48.736;9.218;2022-07-19T07:21:25;4.03;;;3.73;;
29384;SDS011;16367;48.736;9.218;2022-07-19T07:23:29;3.77;;;3.40;;
29384;SDS011;16367;48.736;9.218;2022-07-19T07:25:32;6.43;;;3.90;;
29384;SDS011;16367;48.736;9.218;2022-07-19T07:27:36;4.47;;;4.10;;
29384;SDS011;16367;48.736;9.218;2022-07-19T07:29:39;3.97;;;3.67;;
29384;SDS011;16367;48.736;9.218;2022-07-19T07:31:43;4.13;;;3.70;;
29384;SDS011;16367;48.736;9.218;2022-07-19T07:33:45;3.93;;;3.63;;
29384;SDS011;16367;48.736;9.218;2022-07-19T07:35:51;5.30;;;3.77;;
29384;SDS011;16367;48.736;9.218;2022-07-19T07:37:54;5.13;;;3.43;;
29384;SDS011;16367;48.736;9.218;2022-07-19T07:39:58;3.90;;;3.30;;
29384;SDS011;16367;48.736;9.218;2022-07-19T07:42:01;3.93;;;3.63;;
29384;SDS011;16367;48.736;9.218;2022-07-19T07:44:13;3.90;;;3.60;;
29384;SDS011;16367;48.736;9.218;2022-07-19T07:46:16;4.20;;;3.20;;
29384;SDS011;16367;48.736;9.218;2022-07-19T07:48:19;4.90;;;3.40;;
29384;SDS011;16367;48.736;9.218;2022-07-19T07:50:22;3.90;;;3.60;;
29384;SDS011;16367;48.736;9.218;2022-07-19T07:52:25;4.57;;;3.40;;
29384;SDS011;16367;48.736;9.218;2022-07-19T07:54:30;4.63;;;3.73;;
29384;SDS011;16367;48.736;9.218;2022-07-19T07:56:34;4.40;;;3.33;;
29384;SDS011;16367;48.736;9.218;2022-07-19T07:58:38;4.70;;;3.50;;
29384;SDS011;16367;48.736;9.218;2022-07-19T08:00:41;6.40;;;3.57;;
29384;SDS011;16367;48.736;9.218;2022-07-19T08:02:44;4.40;;;3.80;;
29384;SDS011;16367;48.736;9.218;2022-07-19T08:04:48;3.40;;;3.10;;
29384;SDS011;16367;48.736;9.218;2022-07-19T08:06:51;5.70;;;3.40;;
29384;SDS011;16367;48.736;9.218;2022-07-19T08:08:53;3.63;;;3.33;;
29384;SDS011;16367;48.736;9.218;2022-07-19T08:10:56;3.57;;;3.13;;
29384;SDS011;16367;48.736;9.218;2022-07-19T08:13:01;3.73;;;3.43;;
29384;SDS011;16367;48.736;9.218;2022-07-19T08:15:09;6.90;;;3.10;;
29384;SDS011;16367;48.736;9.218;2022-07-19T08:17:12;4.47;;;3.20;;
29384;SDS011;16367;48.736;9.218;2022-07-19T08:19:15;4.83;;;3.20;;
29384;SDS011;16367;48.736;9.218;2022-07-19T08:21:17;3.70;;;3.40;;
29384;SDS011;16367;48.736;9.218;2022-07-19T08:23:20;3.27;;;3.07;;
29384;SDS011;16367;48.736;9.218;2022-07-19T08:25:23;3.60;;;3.27;;
29384;SDS011;16367;48.736;9.218;2022-07-19T08:27:26;3.53;;;3.33;;
29384;SDS011;16367;48.736;9.218;2022-07-19T08:29:30;5.47;;;3.27;;
29384;SDS011;16367;48.736;9.218;2022-07-19T08:31:33;4.50;;;3.43;;
29384;SDS011;16367;48.736;9.218;2022-07-19T08:33:37;5.50;;;3.30;;
29384;SDS011;16367;48.736;9.218;2022-07-19T08:35:40;3.53;;;3.23;;
29384;SDS011;16367;48.736;9.218;2022-07-19T08:37:43;5.40;;;3.50;;
29384;SDS011;16367;48.736;9.218;2022-07-19T08:39:45;3.70;;;3.40;;
29384;SDS011;16367;48.736;9.218;2022-07-19T08:41:48;3.97;;;3.57;;
29384;SDS011;16367;48.736;9.218;2022-07-19T08:43:51;3.63;;;3.33;;
29384;SDS011;16367;48.736;9.218;2022-07-19T08:45:55;3.53;;;3.33;;
29384;SDS011;16367;48.736;9.218;2022-07-19T08:48:01;3.80;;;3.40;;
29384;SDS011;16367;48.736;9.218;2022-07-19T08:50:05;5.30;;;2.90;;
29384;SDS011;16367;48.736;9.218;2022-07-19T08:52:09;6.13;;;3.00;;
29384;SDS011;16367;48.736;9.218;2022-07-19T08:54:12;4.67;;;3.53;;
29384;SDS011;16367;48.736;9.218;2022-07-19T08:56:15;3.47;;;3.27;;
29384;SDS011;16367;48.736;9.218;2022-07-19T08:58:38;3.77;;;3.30;;
29384;SDS011;16367;48.736;9.218;2022-07-19T09:00:41;3.97;;;3.50;;
29384;SDS011;16367;48.736;9.218;2022-07-19T09:02:51;3.27;;;2.97;;
29384;SDS011;16367;48.736;9.218;2022-07-19T09:04:59;3.63;;;3.40;;
29384;SDS011;16367;48.736;9.218;2022-07-19T09:07:02;3.73;;;3.33;;
29384;SDS011;16367;48.736;9.218;2022-07-19T09:09:05;5.27;;;3.73;;
29384;SDS011;16367;48.736;9.218;2022-07-19T09:11:08;3.60;;;3.30;;
29384;SDS011;16367;48.736;9.218;2022-07-19T09:13:17;3.67;;;3.30;;
29384;SDS011;16367;48.736;9.218;2022-07-19T09:15:20;4.13;;;3.30;;
29384;SDS011;16367;48.736;9.218;2022-07-19T09:17:24;3.60;;;3.30;;
29384;SDS011;16367;48.736;9.218;2022-07-19T09:19:34;3.67;;;3.40;;
29384;SDS011;16367;48.736;9.218;2022-07-19T09:21:49;3.73;;;3.07;;
29384;SDS011;16367;48.736;9.218;2022-07-19T09:24:01;3.60;;;3.30;;
29384;SDS011;16367;48.736;9.218;2022-07-19T09:26:05;3.30;;;3.00;;
29384;SDS011;16367;48.736;9.218;2022-07-19T09:28:08;3.70;;;3.23;;
29384;SDS011;16367;48.736;9.218;2022-07-19T09:30:11;3.67;;;3.20;;
29384;SDS011;16367;48.736;9.218;2022-07-19T09:32:15;3.70;;;3.40;;
29384;SDS011;16367;48.736;9.218;2022-07-19T09:34:25;3.50;;;3.20;;
29384;SDS011;16367;48.736;9.218;2022-07-19T09:36:30;3.60;;;3.30;;
29384;SDS011;16367;48.736;9.218;2022-07-19T09:38:35;3.70;;;3.40;;
29384;SDS011;16367;48.736;9.218;2022-07-19T09:40:38;4.73;;;3.60;;
29384;SDS011;16367;48.736;9.218;2022-07-19T09:42:42;3.90;;;3.47;;
29384;SDS011;16367;48.736;9.218;2022-07-19T09:44:46;3.90;;;3.47;;
29384;SDS011;16367;48.736;9.218;2022-07-19T09:46:59;3.97;;;3.67;;
29384;SDS011;16367;48.736;9.218;2022-07-19T09:49:09;4.33;;;3.23;;
29384;SDS011;16367;48.736;9.218;2022-07-19T09:51:14;6.33;;;4.10;;
29384;SDS011;16367;48.736;9.218;2022-07-19T09:53:18;3.80;;;3.50;;
29384;SDS011;16367;48.736;9.218;2022-07-19T09:55:22;3.87;;;3.57;;
29384;SDS011;16367;48.736;9.218;2022-07-19T09:57:25;3.87;;;3.50;;
29384;SDS011;16367;48.736;9.218;2022-07-19T09:59:29;4.13;;;3.70;;
29384;SDS011;16367;48.736;9.218;2022-07-19T10:01:34;3.67;;;3.30;;
29384;SDS011;16367;48.736;9.218;2022-07-19T10:03:38;3.70;;;3.40;;
29384;SDS011;16367;48.736;9.218;2022-07-19T10:05:46;7.00;;;3.57;;
29384;SDS011;16367;48.736;9.218;2022-07-19T10:07:50;5.00;;;3.70;;
29384;SDS011;16367;48.736;9.218;2022-07-19T10:09:55;5.00;;;3.60;;
29384;SDS011;16367;48.736;9.218;2022-07-19T10:11:57;4.03;;;3.60;;
29384;SDS011;16367;48.736;9.218;2022-07-19T10:14:02;3.80;;;3.50;;
29384;SDS011;16367;48.736;9.218;2022-07-19T10:16:06;4.20;;;3.90;;
29384;SDS011;16367;48.736;9.218;2022-07-19T10:18:14;3.73;;;3.43;;
29384;SDS011;16367;48.736;9.218;2022-07-19T10:20:22;4.10;;;3.70;;
29384;SDS011;16367;48.736;9.218;2022-07-19T10:22:27;3.67;;;3.37;;
29384;SDS011;16367;48.736;9.218;2022-07-19T10:24:46;4.13;;;3.50;;
29384;SDS011;16367;48.736;9.218;2022-07-19T10:26:52;5.73;;;3.50;;
29384;SDS011;16367;48.736;9.218;2022-07-19T10:29:05;3.57;;;3.27;;
29384;SDS011;16367;48.736;9.218;2022-07-19T10:31:23;4.60;;;4.03;;
29384;SDS011;16367;48.736;9.218;2022-07-19T10:33:29;4.97;;;3.90;;
29384;SDS011;16367;48.736;9.218;2022-07-19T10:35:34;4.73;;;3.70;;
29384;SDS011;16367;48.736;9.218;2022-07-19T10:37:40;3.90;;;3.60;;
29384;SDS011;16367;48.736;9.218;2022-07-19T10:39:44;4.27;;;3.90;;
29384;SDS011;16367;48.736;9.218;2022-07-19T10:42:07;5.23;;;4.73;;
29384;SDS011;16367;48.736;9.218;2022-07-19T10:44:17;4.30;;;3.90;;
29384;SDS011;16367;48.736;9.218;2022-07-19T10:46:24;5.90;;;3.87;;
29384;SDS011;16367;48.736;9.218;2022-07-19T10:48:36;6.63;;;3.70;;
29384;SDS011;16367;48.736;9.218;2022-07-19T10:50:41;5.07;;;3.90;;
29384;SDS011;16367;48.736;9.218;2022-07-19T10:52:49;6.27;;;4.13;;
29384;SDS011;16367;48.736;9.218;2022-07-19T10:57:36;4.30;;;3.60;;
29384;SDS011;16367;48.736;9.218;2022-07-19T10:59:40;4.50;;;4.10;;
29384;SDS011;16367;48.736;9.218;2022-07-19T11:01:53;5.10;;;4.60;;
29384;SDS011;16367;48.736;9.218;2022-07-19T11:06:29;6.70;;;3.70;;
29384;SDS011;16367;48.736;9.218;2022-07-19T11:08:34;4.10;;;3.70;;
29384;SDS011;16367;48.736;9.218;2022-07-19T11:10:37;5.47;;;4.13;;
29384;SDS011;16367;48.736;9.218;2022-07-19T11:12:41;6.13;;;4.00;;
29384;SDS011;16367;48.736;9.218;2022-07-19T11:14:46;5.07;;;3.90;;
29384;SDS011;16367;48.736;9.218;2022-07-19T11:17:09;4.37;;;3.80;;
29384;SDS011;16367;48.736;9.218;2022-07-19T11:19:11;5.43;;;3.70;;
29384;SDS011;16367;48.736;9.218;2022-07-19T11:21:14;5.27;;;4.03;;
29384;SDS011;16367;48.736;9.218;2022-07-19T11:23:18;5.23;;;4.00;;
29384;SDS011;16367;48.736;9.218;2022-07-19T11:25:23;4.17;;;3.80;;
29384;SDS011;16367;48.736;9.218;2022-07-19T11:27:27;6.33;;;4.03;;
29384;SDS011;16367;48.736;9.218;2022-07-19T11:31:58;5.77;;;4.30;;
29384;SDS011;16367;48.736;9.218;2022-07-19T11:34:01;7.20;;;3.90;;
29384;SDS011;16367;48.736;9.218;2022-07-19T11:36:04;4.37;;;3.97;;
29384;SDS011;16367;48.736;9.218;2022-07-19T11:38:07;4.00;;;3.60;;
29384;SDS011;16367;48.736;9.218;2022-07-19T11:40:10;5.47;;;4.10;;
29384;SDS011;16367;48.736;9.218;2022-07-19T11:42:14;6.40;;;4.40;;
29384;SDS011;16367;48.736;9.218;2022-07-19T11:44:18;4.60;;;4.20;;
29384;SDS011;16367;48.736;9.218;2022-07-19T11:46:22;5.10;;;4.23;;
29384;SDS011;16367;48.736;9.218;2022-07-19T11:48:28;5.03;;;3.83;;
29384;SDS011;16367;48.736;9.218;2022-07-19T11:50:32;4.70;;;4.30;;
29384;SDS011;16367;48.736;9.218;2022-07-19T11:52:48;4.77;;;4.37;;
29384;SDS011;16367;48.736;9.218;2022-07-19T11:54:58;4.67;;;4.23;;
29384;SDS011;16367;48.736;9.218;2022-07-19T11:57:02;4.43;;;4.03;;
29384;SDS011;16367;48.736;9.218;2022-07-19T11:59:09;4.40;;;4.00;;
29384;SDS011;16367;48.736;9.218;2022-07-19T12:01:12;4.80;;;4.30;;
29384;SDS011;16367;48.736;9.218;2022-07-19T12:03:17;6.33;;;4.60;;
29384;SDS011;16367;48.736;9.218;2022-07-19T12:05:21;4.30;;;3.90;;
29384;SDS011;16367;48.736;9.218;2022-07-19T12:07:24;4.90;;;4.40;;
29384;SDS011;16367;48.736;9.218;2022-07-19T12:09:28;4.23;;;3.93;;
29384;SDS011;16367;48.736;9.218;2022-07-19T12:11:38;5.20;;;4.17;;
29384;SDS011;16367;48.736;9.218;2022-07-19T12:13:42;5.03;;;4.53;;
29384;SDS011;16367;48.736;9.218;2022-07-19T12:15:51;6.00;;;4.20;;
29384;SDS011;16367;48.736;9.218;2022-07-19T12:17:56;11.53;;;4.33;;
29384;SDS011;16367;48.736;9.218;2022-07-19T12:20:08;7.10;;;4.40;;
29384;SDS011;16367;48.736;9.218;2022-07-19T12:22:32;4.77;;;4.27;;
29384;SDS011;16367;48.736;9.218;2022-07-19T12:24:43;4.30;;;3.90;;
29384;SDS011;16367;48.736;9.218;2022-07-19T12:27:01;4.33;;;3.93;;
29384;SDS011;16367;48.736;9.218;2022-07-19T12:29:18;5.00;;;4.53;;
29384;SDS011;16367;48.736;9.218;2022-07-19T12:31:22;4.70;;;4.30;;
29384;SDS011;16367;48.736;9.218;2022-07-19T12:33:25;5.10;;;4.00;;
29384;SDS011;16367;48.736;9.218;2022-07-19T12:35:30;6.40;;;5.03;;
29384;SDS011;16367;48.736;9.218;2022-07-19T12:37:44;5.60;;;4.23;;